createdAt,value
2023-01-02T00:01:42.361Z,100730.13
2023-01-02T00:06:44.257Z,100720.34
2023-01-02T00:11:45.861Z,100724.59
2023-01-02T00:16:47.477Z,100704.69
2023-01-02T00:21:49.075Z,100704.19
2023-01-02T00:26:50.723Z,100699.19
2023-01-02T00:31:52.346Z,100696.56
2023-01-02T00:36:54.073Z,100715.97
2023-01-02T00:41:55.730Z,100702.91
2023-01-02T00:46:57.443Z,100695.53
2023-01-02T00:51:59.132Z,100701.69
2023-01-02T00:57:00.753Z,100704.44
2023-01-02T01:02:02.680Z,100701.50
2023-01-02T01:07:04.615Z,100690.31
2023-01-02T01:12:06.288Z,100685.66
2023-01-02T01:17:07.964Z,100677.06
2023-01-02T01:22:09.586Z,100654.66
2023-01-02T01:27:11.216Z,100654.50
2023-01-02T01:32:13.895Z,100656.03
2023-01-02T01:37:15.534Z,100653.81
2023-01-02T01:42:18.387Z,100661.41
2023-01-02T01:47:20.004Z,100665.00
2023-01-02T01:52:28.795Z,100665.88
2023-01-02T01:57:35.780Z,100659.81
2023-01-02T02:02:42.442Z,100653.97
2023-01-02T02:07:51.338Z,100662.38
2023-01-02T02:12:53.023Z,100665.13
2023-01-02T02:18:32.295Z,100664.75
2023-01-02T02:24:11.287Z,100675.09
2023-01-02T02:29:41.084Z,100677.00
2023-01-02T02:35:03.908Z,100670.25
2023-01-02T02:40:24.844Z,100674.06
2023-01-02T02:45:42.016Z,100659.13
2023-01-02T02:50:56.443Z,100650.16
2023-01-02T02:56:01.528Z,100642.06
2023-01-02T03:01:05.889Z,100648.81
2023-01-02T03:06:12.815Z,100652.78
2023-01-02T03:11:15.444Z,100646.41
2023-01-02T03:16:24.387Z,100637.81
2023-01-02T03:21:40.561Z,100638.16
2023-01-02T03:26:50.758Z,100646.41
2023-01-02T03:31:55.893Z,100647.47
2023-01-02T03:37:07.287Z,100652.66
2023-01-02T03:42:13.097Z,100651.97
2023-01-02T03:47:33.608Z,100664.59
2023-01-02T03:52:35.347Z,100656.53
2023-01-02T03:58:22.144Z,100667.19
2023-01-02T04:03:36.876Z,100664.16
2023-01-02T04:08:45.813Z,100684.44
2023-01-02T04:13:52.844Z,100668.44
2023-01-02T04:19:08.506Z,100691.00
2023-01-02T04:24:21.860Z,100705.63
2023-01-02T04:29:23.563Z,100704.78
2023-01-02T04:34:28.484Z,100717.34
2023-01-02T04:39:30.755Z,100729.00
2023-01-02T04:44:32.458Z,100744.78
2023-01-02T04:49:35.965Z,100748.56
2023-01-02T04:54:40.233Z,100764.22
2023-01-02T04:59:41.870Z,100760.75
2023-01-02T05:04:43.473Z,100779.34
2023-01-02T05:09:45.296Z,100797.72
2023-01-02T05:14:46.966Z,100813.19
2023-01-02T05:19:48.603Z,100839.81
2023-01-02T05:24:50.226Z,100855.75
2023-01-02T05:29:51.882Z,100873.59
2023-01-02T05:34:53.579Z,100884.44
2023-01-02T05:39:55.179Z,100888.34
2023-01-02T05:44:56.802Z,100894.06
2023-01-02T05:49:58.470Z,100918.25
2023-01-02T05:55:00.155Z,100920.50
2023-01-02T06:00:02.382Z,100940.56
2023-01-02T06:05:14.539Z,100944.38
2023-01-02T06:10:16.289Z,100950.19
2023-01-02T06:15:17.924Z,100958.09
2023-01-02T06:20:19.519Z,100954.31
2023-01-02T06:25:21.158Z,100976.63
2023-01-02T06:30:22.830Z,100979.69
2023-01-02T06:35:24.532Z,100993.44
2023-01-02T06:40:26.120Z,100993.59
2023-01-02T06:45:27.800Z,101008.88
2023-01-02T06:50:34.895Z,101022.41
2023-01-02T06:55:37.121Z,101026.34
2023-01-02T07:00:38.874Z,101035.94
2023-01-02T07:05:40.791Z,101044.34
2023-01-02T07:10:44.553Z,101063.22
2023-01-02T07:15:48.387Z,101080.81
2023-01-02T07:20:54.754Z,101094.97
2023-01-02T07:25:58.841Z,101102.38
2023-01-02T07:31:04.703Z,101109.53
2023-01-02T07:36:09.036Z,101124.28
2023-01-02T07:41:19.338Z,101127.72
2023-01-02T07:46:21.141Z,101149.69
2023-01-02T07:51:27.462Z,101158.72
2023-01-02T07:56:30.284Z,101175.97
2023-01-02T08:01:32.105Z,101192.44
2023-01-02T08:06:34.496Z,101196.66
2023-01-02T08:11:36.422Z,101215.16
2023-01-02T08:16:38.125Z,101225.75
2023-01-02T08:21:39.777Z,101223.88
2023-01-02T08:26:41.465Z,101223.38
2023-01-02T08:31:43.979Z,101242.16
2023-01-02T08:36:45.814Z,101258.91
2023-01-02T08:41:47.385Z,101261.28
2023-01-02T08:46:49.005Z,101271.22
2023-01-02T08:51:50.672Z,101293.94
2023-01-02T08:56:52.423Z,101303.19
2023-01-02T09:01:54.728Z,101316.19
2023-01-02T09:06:56.472Z,101305.94
2023-01-02T09:11:59.261Z,101321.81
2023-01-02T09:17:00.987Z,101333.41
2023-01-02T09:22:02.864Z,101346.41
2023-01-02T09:27:04.499Z,101339.75
2023-01-02T09:32:06.127Z,101339.91
2023-01-02T09:37:07.817Z,101355.63
2023-01-02T09:42:14.976Z,101366.31
2023-01-02T09:47:21.836Z,101345.09
2023-01-02T09:52:28.294Z,101332.47
2023-01-02T09:57:30.073Z,101370.44
2023-01-02T10:03:07.917Z,101364.38
2023-01-02T10:08:32.973Z,101383.97
2023-01-02T10:19:17.311Z,101415.72
2023-01-02T10:24:34.628Z,101400.97
2023-01-02T10:29:56.352Z,101396.00
2023-01-02T10:35:07.348Z,101379.28
2023-01-02T10:40:10.531Z,101392.56
2023-01-02T10:45:16.479Z,101409.25
2023-01-02T10:50:22.350Z,101396.09
2023-01-02T10:55:35.230Z,101403.72
2023-01-02T11:00:37.265Z,101405.75
2023-01-02T11:05:50.559Z,101402.25
2023-01-02T11:10:52.206Z,101401.06
2023-01-02T11:15:59.509Z,101411.19
2023-01-02T11:21:06.579Z,101417.09
2023-01-02T11:26:20.371Z,101430.41
2023-01-02T11:31:23.862Z,101448.69
2023-01-02T11:36:27.696Z,101451.81
2023-01-02T11:41:56.520Z,101444.00
2023-01-02T11:46:59.956Z,101450.06
2023-01-02T11:52:06.072Z,101442.53
2023-01-02T11:57:19.234Z,101441.63
2023-01-02T12:02:30.510Z,101452.25
2023-01-02T12:07:44.241Z,101455.75
2023-01-02T12:13:04.677Z,101441.16
2023-01-02T12:18:15.474Z,101448.13
2023-01-02T12:23:27.633Z,101464.13
2023-01-02T12:28:32.336Z,101472.34
2023-01-02T12:33:58.917Z,101475.00
2023-01-02T12:39:28.559Z,101477.59
2023-01-02T12:44:52.134Z,101473.00
2023-01-02T12:50:13.876Z,101497.88
2023-01-02T12:55:20.553Z,101490.03
2023-01-02T13:00:52.276Z,101498.13
2023-01-02T13:05:59.821Z,101514.34
2023-01-02T13:11:05.861Z,101516.38
2023-01-02T13:16:24.389Z,101522.38
2023-01-02T13:21:37.260Z,101522.97
2023-01-02T13:26:39.535Z,101545.50
2023-01-02T13:31:47.426Z,101546.69
2023-01-02T13:36:57.755Z,101547.06
2023-01-02T13:42:21.344Z,101552.41
2023-01-02T13:47:34.398Z,101559.94
2023-01-02T13:52:37.839Z,101565.69
2023-01-02T13:57:39.603Z,101571.59
2023-01-02T14:02:41.692Z,101576.22
2023-01-02T14:07:45.601Z,101594.88
2023-01-02T14:12:53.737Z,101604.53
2023-01-02T14:18:06.722Z,101601.41
2023-01-02T14:23:11.122Z,101613.09
2023-01-02T14:28:23.123Z,101627.53
2023-01-02T14:33:34.148Z,101628.22
2023-01-02T14:38:50.921Z,101640.22
2023-01-02T14:43:53.023Z,101650.91
2023-01-02T14:48:56.741Z,101657.25
2023-01-02T14:54:02.421Z,101660.97
2023-01-02T14:59:05.995Z,101673.72
2023-01-02T15:04:23.015Z,101689.44
2023-01-02T15:09:32.295Z,101688.59
2023-01-02T15:14:33.937Z,101713.41
2023-01-02T15:19:36.657Z,101717.88
2023-01-02T15:24:39.287Z,101734.78
2023-01-02T15:29:47.622Z,101741.84
2023-01-02T15:34:50.587Z,101744.75
2023-01-02T15:39:53.648Z,101761.63
2023-01-02T15:45:13.886Z,101758.59
2023-01-02T15:50:25.635Z,101767.84
2023-01-02T15:55:33.047Z,101783.84
2023-01-02T16:00:37.711Z,101801.16
2023-01-02T16:05:53.402Z,101805.66
2023-01-02T16:11:01.572Z,101824.97
2023-01-02T16:16:16.051Z,101829.59
2023-01-02T16:21:20.049Z,101838.53
2023-01-02T16:26:29.794Z,101841.88
2023-01-02T16:31:50.713Z,101861.44
2023-01-02T16:37:15.333Z,101864.75
2023-01-02T16:42:37.775Z,101867.66
2023-01-02T16:47:44.506Z,101876.88
2023-01-02T16:52:49.667Z,101885.56
2023-01-02T16:57:51.654Z,101891.31
2023-01-02T17:02:56.237Z,101901.59
2023-01-02T17:08:00.893Z,101899.53
2023-01-02T17:13:03.959Z,101909.78
2023-01-02T17:18:06.008Z,101918.84
2023-01-02T17:23:07.948Z,101924.22
2023-01-02T17:28:10.446Z,101943.81
2023-01-02T17:33:12.527Z,101944.22
2023-01-02T17:38:14.819Z,101947.69
2023-01-02T17:43:16.579Z,101951.53
2023-01-02T17:48:24.537Z,101965.94
2023-01-02T17:53:27.095Z,101967.75
2023-01-02T17:58:29.318Z,101975.22
2023-01-02T18:03:31.052Z,101985.19
2023-01-02T18:08:34.013Z,101991.53
2023-01-02T18:13:43.561Z,101997.84
2023-01-02T18:18:46.016Z,102004.44
2023-01-02T18:23:52.550Z,102018.63
2023-01-02T18:29:01.533Z,102022.34
2023-01-02T18:39:44.617Z,102033.09
2023-01-02T18:44:46.861Z,102039.84
2023-01-02T18:49:48.520Z,102047.00
2023-01-02T18:54:58.799Z,102057.09
2023-01-02T19:00:22.452Z,102065.31
2023-01-02T19:05:24.106Z,102066.56
2023-01-02T19:10:37.013Z,102075.88
2023-01-02T19:15:54.027Z,102081.00
2023-01-02T19:21:11.615Z,102090.47
2023-01-02T19:26:40.628Z,102100.16
2023-01-02T19:31:56.703Z,102111.25
2023-01-02T19:37:35.837Z,102117.88
2023-01-02T19:42:39.022Z,102119.59
2023-01-02T19:47:40.770Z,102119.97
2023-01-02T19:52:42.769Z,102129.81
2023-01-02T19:57:45.464Z,102134.66
2023-01-02T20:02:52.314Z,102156.50
2023-01-02T20:07:59.861Z,102151.75
2023-01-02T20:13:04.242Z,102160.31
2023-01-02T20:18:09.212Z,102170.19
2023-01-02T20:23:10.943Z,102159.72
2023-01-02T20:28:12.603Z,102159.34
2023-01-02T20:33:14.433Z,102167.56
2023-01-02T20:38:16.096Z,102178.41
2023-01-02T20:43:17.821Z,102180.97
2023-01-02T20:48:21.620Z,102189.81
2023-01-02T20:53:23.237Z,102189.94
2023-01-02T20:58:25.700Z,102201.53
2023-01-02T21:03:27.457Z,102216.22
2023-01-02T21:08:29.585Z,102220.56
2023-01-02T21:13:31.306Z,102234.75
2023-01-02T21:18:38.426Z,102240.88
2023-01-02T21:23:41.310Z,102242.97
2023-01-02T21:28:50.053Z,102245.94
2023-01-02T21:33:51.712Z,102245.59
2023-01-02T21:38:53.725Z,102250.31
2023-01-02T21:43:55.449Z,102243.34
2023-01-02T21:48:57.024Z,102246.84
2023-01-02T21:53:58.690Z,102262.28
2023-01-02T21:59:00.508Z,102268.00
2023-01-02T22:04:03.702Z,102276.69
2023-01-02T22:09:05.279Z,102275.47
2023-01-02T22:14:07.461Z,102286.91
2023-01-02T22:19:09.069Z,102290.59
2023-01-02T22:24:10.837Z,102296.97
2023-01-02T22:29:17.322Z,102301.56
2023-01-02T22:34:21.220Z,102305.41
2023-01-02T22:39:29.812Z,102304.66
2023-01-02T22:44:31.472Z,102316.75
2023-01-02T22:49:35.774Z,102326.19
2023-01-02T22:54:37.410Z,102343.09
2023-01-02T22:59:40.453Z,102354.03
2023-01-02T23:04:42.500Z,102369.19
2023-01-02T23:09:44.167Z,102371.63
2023-01-02T23:14:46.360Z,102372.09
2023-01-02T23:19:47.945Z,102387.88
2023-01-02T23:24:49.768Z,102399.94
2023-01-02T23:29:51.336Z,102393.53
2023-01-02T23:34:53.142Z,102402.19
2023-01-02T23:39:56.229Z,102412.25
2023-01-02T23:44:57.877Z,102401.31
2023-01-02T23:49:59.573Z,102406.25
2023-01-02T23:55:01.251Z,102404.28
